Time;durP1;ratioP1;P1;durP2;ratioP2;P2;SDS_P1;SDS_P2;PMS_P1;PMS_P2;Temp;Humidity;BMP_temperature;BMP_pressure;BME280_temperature;BME280_humidity;BME280_pressure;Samples;Min_cycle;Max_cycle;Signal;HPM_P1;HPM_P2
2023/12/24 00:01:55;;;;;;;16.42;4.07;;;9.80;92.40;;;;;;4873515;29;20504;-81
2023/12/24 00:04:20;;;;;;;15.35;2.92;;;9.90;92.40;;;;;;4876904;29;20043;-81
2023/12/24 00:06:46;;;;;;;14.02;3.78;;;9.80;92.40;;;;;;4885856;29;20444;-81
2023/12/24 00:09:11;;;;;;;12.40;3.30;;;9.80;92.40;;;;;;4888331;29;20124;-81
2023/12/24 00:11:38;;;;;;;17.75;3.42;;;9.80;92.40;;;;;;4887676;29;20068;-81
2023/12/24 00:14:04;;;;;;;11.15;3.25;;;9.80;92.40;;;;;;4874921;29;20044;-81
2023/12/24 00:16:30;;;;;;;11.60;3.38;;;10.20;92.50;;;;;;4889329;29;20112;-81
2023/12/24 00:18:57;;;;;;;16.80;3.80;;;9.80;92.40;;;;;;4885243;29;20041;-81
2023/12/24 00:21:24;;;;;;;14.65;3.08;;;9.80;92.40;;;;;;4873816;29;20048;-81
2023/12/24 00:23:49;;;;;;;12.02;3.17;;;9.80;92.40;;;;;;4873480;29;20048;-82
2023/12/24 00:26:18;;;;;;;11.93;2.75;;;9.80;92.40;;;;;;4888083;29;20188;-81
2023/12/24 00:28:45;;;;;;;14.30;3.53;;;9.80;92.40;;;;;;4887477;29;20516;-81
2023/12/24 00:31:11;;;;;;;14.40;3.75;;;9.80;92.50;;;;;;4864873;29;20084;-82
2023/12/24 00:33:38;;;;;;;12.60;3.30;;;9.80;92.50;;;;;;4865514;29;20490;-81
2023/12/24 00:36:05;;;;;;;11.48;3.45;;;10.10;92.50;;;;;;4864269;29;20059;-80
2023/12/24 00:38:34;;;;;;;15.35;3.75;;;9.80;92.50;;;;;;4887403;29;20080;-81
2023/12/24 00:41:00;;;;;;;16.80;3.38;;;9.80;92.50;;;;;;4879224;29;20048;-81
2023/12/24 00:43:25;;;;;;;15.93;3.67;;;9.80;92.50;;;;;;4888133;29;20079;-81
2023/12/24 00:45:51;;;;;;;15.52;3.35;;;9.80;92.50;;;;;;4883941;29;20044;-81
2023/12/24 00:48:16;;;;;;;14.68;2.90;;;9.80;92.50;;;;;;4885659;29;20045;-81
2023/12/24 00:50:42;;;;;;;14.27;3.03;;;9.80;92.50;;;;;;4899611;29;20056;-81
2023/12/24 00:53:08;;;;;;;13.73;2.53;;;9.80;92.50;;;;;;4881139;29;20040;-81
2023/12/24 00:55:33;;;;;;;12.88;2.85;;;9.80;92.50;;;;;;4878404;29;20068;-81
2023/12/24 00:57:59;;;;;;;16.83;2.80;;;9.80;92.60;;;;;;4860321;29;20088;-81
2023/12/24 01:00:29;;;;;;;17.73;3.10;;;9.90;92.60;;;;;;4879922;29;20036;-81
2023/12/24 01:02:54;;;;;;;12.60;2.50;;;9.80;92.60;;;;;;4892536;29;20071;-81
2023/12/24 01:05:20;;;;;;;12.90;2.47;;;9.80;92.60;;;;;;4878515;29;20045;-81
2023/12/24 01:07:46;;;;;;;14.68;3.22;;;9.80;92.60;;;;;;4884320;29;20052;-81
2023/12/24 01:10:15;;;;;;;11.50;3.22;;;10.40;92.80;;;;;;4878820;29;20041;-84
2023/12/24 01:12:56;;;;;;;10.60;2.58;;;9.80;92.60;;;;;;4872594;29;20072;-82
2023/12/24 01:15:23;;;;;;;9.80;2.60;;;9.80;92.60;;;;;;4888410;29;20057;-82
2023/12/24 01:17:56;;;;;;;15.48;2.85;;;9.80;92.60;;;;;;4891482;29;20045;-82
2023/12/24 01:20:33;;;;;;;13.05;3.08;;;9.80;92.60;;;;;;4887190;29;20041;-82
2023/12/24 01:22:59;;;;;;;17.90;3.28;;;9.80;92.60;;;;;;4889156;29;20132;-83
2023/12/24 01:25:35;;;;;;;15.45;2.72;;;9.80;92.60;;;;;;4875539;29;20044;-82
2023/12/24 01:28:08;;;;;;;12.98;2.10;;;10.50;92.90;;;;;;4876512;29;20131;-82
2023/12/24 01:30:37;;;;;;;11.35;3.28;;;9.80;92.70;;;;;;4886146;29;20041;-82
2023/12/24 01:33:03;;;;;;;11.38;2.83;;;10.40;92.80;;;;;;4888477;29;20100;-82
2023/12/24 01:35:30;;;;;;;14.55;3.45;;;9.80;92.70;;;;;;4887531;29;20044;-82
2023/12/24 01:38:00;;;;;;;11.07;2.50;;;9.80;92.80;;;;;;4886196;29;20061;-82
2023/12/24 01:40:36;;;;;;;10.70;2.00;;;10.20;92.90;;;;;;4870608;29;20037;-82
2023/12/24 01:43:22;;;;;;;14.02;2.63;;;9.80;92.80;;;;;;4883446;29;20066;-82
2023/12/24 01:45:50;;;;;;;11.48;2.42;;;9.80;92.80;;;;;;4859442;29;20037;-82
2023/12/24 01:48:18;;;;;;;11.40;3.08;;;9.80;92.80;;;;;;4878247;29;20108;-82
2023/12/24 01:50:50;;;;;;;11.25;2.40;;;9.80;92.80;;;;;;4872693;29;20101;-82
2023/12/24 01:53:22;;;;;;;12.13;2.65;;;9.80;92.90;;;;;;4884959;29;20033;-82
2023/12/24 01:55:53;;;;;;;13.90;3.92;;;9.80;92.90;;;;;;4870481;29;20072;-82
2023/12/24 01:58:21;;;;;;;10.57;2.67;;;9.80;92.90;;;;;;4888627;29;20064;-82
2023/12/24 02:00:47;;;;;;;10.15;2.20;;;9.80;93.00;;;;;;4882770;29;20132;-82
2023/12/24 02:03:27;;;;;;;12.60;2.53;;;9.80;93.00;;;;;;4865389;29;20072;-81
2023/12/24 02:05:55;;;;;;;11.77;2.75;;;9.80;93.00;;;;;;4874075;29;20053;-82
2023/12/24 02:08:24;;;;;;;12.35;2.97;;;9.80;93.00;;;;;;4889320;29;20052;-82
2023/12/24 02:10:52;;;;;;;13.70;3.05;;;9.80;93.00;;;;;;4872430;29;20044;-82
2023/12/24 02:13:23;;;;;;;10.30;2.47;;;9.80;93.10;;;;;;4887791;29;20041;-82
2023/12/24 02:16:05;;;;;;;13.65;3.08;;;9.80;93.10;;;;;;4872913;29;20064;-82
2023/12/24 02:18:32;;;;;;;11.20;2.88;;;9.80;93.10;;;;;;4888790;29;20041;-82
2023/12/24 02:21:07;;;;;;;17.85;2.80;;;9.80;93.20;;;;;;4891184;29;20097;-82
2023/12/24 02:23:34;;;;;;;15.95;3.15;;;9.80;93.20;;;;;;4891274;29;20461;-82
2023/12/24 02:26:18;;;;;;;12.13;3.00;;;10.30;93.30;;;;;;4859456;29;20053;-82
2023/12/24 02:28:50;;;;;;;12.10;2.30;;;9.80;93.20;;;;;;4890952;29;20049;-82
2023/12/24 02:31:26;;;;;;;10.07;2.53;;;9.80;93.20;;;;;;4880426;29;20038;-82
2023/12/24 02:33:58;;;;;;;10.50;2.42;;;9.90;93.30;;;;;;4890821;29;20070;-81
2023/12/24 02:36:25;;;;;;;8.00;2.45;;;9.80;93.20;;;;;;4885760;29;20592;-82
2023/12/24 02:39:06;;;;;;;9.45;2.47;;;9.80;93.20;;;;;;4893060;29;20049;-82
2023/12/24 02:41:53;;;;;;;7.13;2.50;;;10.30;93.40;;;;;;4892880;29;20048;-82
2023/12/24 02:44:19;;;;;;;12.45;2.72;;;9.80;93.20;;;;;;4890136;29;20040;-82
2023/12/24 02:46:44;;;;;;;10.90;3.42;;;10.00;93.30;;;;;;4877025;29;20044;-82
2023/12/24 02:49:14;;;;;;;9.38;2.55;;;9.80;93.30;;;;;;4893084;29;20076;-82
2023/12/24 02:51:40;;;;;;;10.05;2.40;;;9.80;93.30;;;;;;4892466;29;20045;-82
2023/12/24 02:54:07;;;;;;;10.90;2.47;;;9.80;93.30;;;;;;4892443;29;20059;-82
2023/12/24 02:56:40;;;;;;;11.57;3.00;;;9.80;93.30;;;;;;4875238;29;20060;-81
2023/12/24 02:59:06;;;;;;;9.93;2.40;;;9.70;93.30;;;;;;4871690;29;20115;-81
2023/12/24 03:01:36;;;;;;;11.52;2.20;;;9.80;93.30;;;;;;4889730;29;20205;-82
2023/12/24 03:04:06;;;;;;;10.85;2.47;;;10.30;93.50;;;;;;4890134;29;20416;-82
2023/12/24 03:06:37;;;;;;;9.90;2.83;;;10.40;93.50;;;;;;4892423;29;20101;-82
2023/12/24 03:09:12;;;;;;;8.95;2.28;;;9.80;93.40;;;;;;4874162;29;20041;-82
2023/12/24 03:11:38;;;;;;;8.00;2.28;;;9.80;93.40;;;;;;4892062;29;20089;-82
2023/12/24 03:14:04;;;;;;;8.63;2.15;;;9.80;93.40;;;;;;4881566;29;20104;-82
2023/12/24 03:16:31;;;;;;;5.60;2.00;;;10.40;93.50;;;;;;4888865;29;20116;-82
2023/12/24 03:19:17;;;;;;;9.15;2.25;;;9.80;93.40;;;;;;4890957;29;20064;-82
2023/12/24 03:21:47;;;;;;;8.82;2.28;;;9.80;93.60;;;;;;4901325;29;20048;-82
2023/12/24 03:24:21;;;;;;;6.47;2.08;;;9.90;93.50;;;;;;4888051;29;20085;-82
2023/12/24 03:26:51;;;;;;;9.35;2.83;;;9.80;93.50;;;;;;4887740;29;20087;-83
2023/12/24 03:29:24;;;;;;;8.38;2.47;;;9.80;93.50;;;;;;4875636;29;20448;-82
2023/12/24 03:31:50;;;;;;;8.25;1.95;;;9.80;93.50;;;;;;4889297;29;20069;-82
2023/12/24 03:34:22;;;;;;;11.75;2.55;;;9.80;93.40;;;;;;4885721;29;20065;-82
2023/12/24 03:36:52;;;;;;;7.57;2.03;;;10.30;93.60;;;;;;4889046;29;20047;-81
2023/12/24 03:39:18;;;;;;;6.70;2.35;;;9.90;93.50;;;;;;4861171;29;20098;-82
2023/12/24 03:41:53;;;;;;;9.75;2.55;;;10.30;93.60;;;;;;4892766;29;20048;-82
2023/12/24 03:44:22;;;;;;;5.93;1.95;;;10.20;93.60;;;;;;4876181;29;20120;-82
2023/12/24 03:46:50;;;;;;;8.05;1.90;;;9.90;93.50;;;;;;4879782;29;20425;-82
2023/12/24 03:49:16;;;;;;;5.28;1.98;;;9.90;93.50;;;;;;4869647;29;20037;-82
2023/12/24 03:51:42;;;;;;;5.07;1.67;;;9.90;93.60;;;;;;4881004;29;20049;-82
2023/12/24 03:54:07;;;;;;;10.05;3.10;;;10.10;93.60;;;;;;4888728;29;20037;-82
2023/12/24 03:56:33;;;;;;;5.03;1.67;;;9.90;93.60;;;;;;4868297;29;20124;-82
2023/12/24 03:59:01;;;;;;;7.07;2.00;;;10.00;93.60;;;;;;4890808;29;20048;-82
2023/12/24 04:01:30;;;;;;;5.50;1.90;;;9.90;93.60;;;;;;4876664;29;20062;-82
2023/12/24 04:03:56;;;;;;;4.18;2.15;;;9.90;93.60;;;;;;4890798;29;20047;-82
2023/12/24 04:06:21;;;;;;;5.28;1.67;;;9.90;93.60;;;;;;4875133;29;20044;-81
2023/12/24 04:08:47;;;;;;;4.90;1.50;;;10.40;93.70;;;;;;4883630;29;20644;-82
2023/12/24 04:11:16;;;;;;;3.58;1.77;;;9.90;93.60;;;;;;4888855;29;20551;-82
2023/12/24 04:13:48;;;;;;;5.93;2.17;;;9.90;93.70;;;;;;4886913;29;20109;-82
2023/12/24 04:16:14;;;;;;;4.47;1.35;;;9.90;93.70;;;;;;4868668;29;20072;-82
2023/12/24 04:18:40;;;;;;;4.57;1.90;;;10.20;93.70;;;;;;4894856;29;20041;-81
2023/12/24 04:21:05;;;;;;;5.18;1.83;;;9.90;93.60;;;;;;4892397;29;20040;-81
2023/12/24 04:23:32;;;;;;;4.25;1.67;;;10.20;93.70;;;;;;4893261;29;20041;-82
2023/12/24 04:25:59;;;;;;;3.50;2.00;;;9.90;93.70;;;;;;4874621;29;20068;-82
2023/12/24 04:28:25;;;;;;;3.70;1.98;;;9.90;93.70;;;;;;4861523;29;20042;-82
2023/12/24 04:30:50;;;;;;;5.00;1.77;;;10.00;93.70;;;;;;4872560;29;20052;-82
2023/12/24 04:33:16;;;;;;;6.88;2.45;;;10.40;93.90;;;;;;4882242;29;20041;-81
2023/12/24 04:35:42;;;;;;;5.40;2.22;;;9.90;93.70;;;;;;4879541;29;20045;-81
2023/12/24 04:38:13;;;;;;;7.07;2.47;;;9.90;93.70;;;;;;4882914;29;20049;-82
2023/12/24 04:40:39;;;;;;;5.15;2.35;;;10.00;93.80;;;;;;4872325;29;20406;-81
2023/12/24 04:43:05;;;;;;;5.00;2.25;;;10.10;93.80;;;;;;4884758;29;20037;-82
2023/12/24 04:45:31;;;;;;;7.53;2.60;;;9.90;93.80;;;;;;4880628;29;20089;-82
2023/12/24 04:47:59;;;;;;;8.02;2.90;;;9.90;93.80;;;;;;4872692;29;20045;-82
2023/12/24 04:50:30;;;;;;;8.20;3.10;;;10.00;93.80;;;;;;4868381;29;20113;-81
2023/12/24 04:52:56;;;;;;;6.22;2.78;;;10.00;93.80;;;;;;4869403;29;20045;-82
2023/12/24 04:55:41;;;;;;;7.65;3.05;;;10.00;93.90;;;;;;4882837;29;20136;-82
2023/12/24 04:58:08;;;;;;;7.00;3.00;;;10.00;93.90;;;;;;4873132;29;20061;-81
2023/12/24 05:00:34;;;;;;;5.78;2.88;;;10.00;93.90;;;;;;4886131;29;20053;-81
2023/12/24 05:03:04;;;;;;;5.65;2.85;;;10.30;94.00;;;;;;4858988;29;20049;-81
2023/12/24 05:05:31;;;;;;;6.85;3.13;;;10.00;93.90;;;;;;4889427;29;20053;-82
2023/12/24 05:08:02;;;;;;;7.43;3.25;;;10.00;93.90;;;;;;4890022;29;20049;-82
2023/12/24 05:10:44;;;;;;;5.38;2.97;;;10.40;94.00;;;;;;4869403;29;20064;-82
2023/12/24 05:13:11;;;;;;;6.10;3.10;;;10.10;94.00;;;;;;4880665;29;20064;-82
2023/12/24 05:15:46;;;;;;;6.07;3.20;;;10.10;93.90;;;;;;4884628;29;20053;-82
2023/12/24 05:18:12;;;;;;;4.35;3.10;;;10.70;94.10;;;;;;4872453;29;20060;-82
2023/12/24 05:20:37;;;;;;;5.82;3.35;;;10.30;94.00;;;;;;4871729;29;20095;-82
2023/12/24 05:23:08;;;;;;;7.10;3.40;;;10.10;94.00;;;;;;4870724;29;20049;-82
2023/12/24 05:25:35;;;;;;;7.25;3.60;;;10.10;94.00;;;;;;4883976;29;20057;-82
2023/12/24 05:28:01;;;;;;;8.10;3.65;;;10.60;94.10;;;;;;4874256;29;20055;-82
2023/12/24 05:30:26;;;;;;;7.22;3.70;;;10.20;94.00;;;;;;4878624;29;20069;-82
2023/12/24 05:32:52;;;;;;;8.85;3.75;;;10.10;94.00;;;;;;4888966;29;20128;-82
2023/12/24 05:35:17;;;;;;;7.28;4.00;;;10.10;94.00;;;;;;4873374;29;20074;-82
2023/12/24 05:37:50;;;;;;;8.27;4.43;;;10.20;94.10;;;;;;4872803;29;20068;-81
2023/12/24 05:40:16;;;;;;;12.55;3.90;;;10.20;94.10;;;;;;4867820;29;20077;-82
2023/12/24 05:42:45;;;;;;;14.18;4.68;;;10.20;94.10;;;;;;4889228;29;20057;-82
2023/12/24 05:45:11;;;;;;;8.55;4.07;;;10.40;94.20;;;;;;4888317;29;20089;-81
2023/12/24 05:47:38;;;;;;;8.20;4.10;;;10.30;94.20;;;;;;4872979;29;20033;-82
2023/12/24 05:50:08;;;;;;;15.23;5.05;;;10.20;94.10;;;;;;4885941;29;20101;-82
2023/12/24 05:52:37;;;;;;;12.27;4.63;;;10.30;94.20;;;;;;4872776;29;20057;-82
2023/12/24 05:55:03;;;;;;;12.02;4.30;;;10.70;94.30;;;;;;4889490;29;20068;-82
2023/12/24 05:57:32;;;;;;;11.35;4.50;;;10.30;94.20;;;;;;4888670;29;20037;-82
2023/12/24 05:59:59;;;;;;;13.45;4.47;;;10.30;94.20;;;;;;4840880;29;20057;-82
2023/12/24 06:02:28;;;;;;;13.32;4.82;;;10.30;94.30;;;;;;4878765;29;20049;-82
2023/12/24 06:04:53;;;;;;;13.65;4.75;;;10.30;94.30;;;;;;4872559;29;20083;-82
2023/12/24 06:07:19;;;;;;;10.75;3.75;;;10.50;94.30;;;;;;4888511;29;20045;-81
2023/12/24 06:09:45;;;;;;;14.77;4.03;;;10.40;94.30;;;;;;4863220;29;20045;-82
2023/12/24 06:12:14;;;;;;;14.45;4.07;;;10.60;94.40;;;;;;4887866;29;20057;-82
2023/12/24 06:14:46;;;;;;;16.70;4.72;;;11.00;94.50;;;;;;4873253;29;20061;-82
2023/12/24 06:17:12;;;;;;;13.75;4.10;;;10.60;94.40;;;;;;4872872;29;20049;-82
2023/12/24 06:19:39;;;;;;;15.90;4.20;;;10.50;94.40;;;;;;4876705;29;20142;-82
2023/12/24 06:22:07;;;;;;;18.50;4.25;;;10.50;94.40;;;;;;4888290;29;20100;-82
2023/12/24 06:24:38;;;;;;;15.02;4.20;;;10.80;94.50;;;;;;4873020;29;20056;-82
2023/12/24 06:27:07;;;;;;;17.67;4.55;;;10.50;94.40;;;;;;4889523;29;20100;-82
2023/12/24 06:29:36;;;;;;;15.88;4.28;;;10.50;94.30;;;;;;4884828;29;20097;-81
2023/12/24 06:32:02;;;;;;;16.75;5.18;;;10.90;94.50;;;;;;4887046;29;20041;-82
2023/12/24 06:34:28;;;;;;;18.38;4.63;;;10.50;94.40;;;;;;4873962;29;20036;-82
2023/12/24 06:36:56;;;;;;;18.25;4.43;;;10.50;94.40;;;;;;4874003;29;20061;-82
2023/12/24 06:39:22;;;;;;;12.93;4.68;;;10.50;94.40;;;;;;4888438;29;20059;-82
2023/12/24 06:41:50;;;;;;;21.83;4.20;;;10.90;94.50;;;;;;4870717;29;20041;-81
2023/12/24 06:44:15;;;;;;;17.33;3.80;;;10.60;94.40;;;;;;4852229;29;20041;-82
2023/12/24 06:46:41;;;;;;;16.95;4.13;;;10.60;94.40;;;;;;4869162;29;20138;-82
2023/12/24 06:49:06;;;;;;;17.98;4.35;;;11.30;94.60;;;;;;4883949;29;20041;-81
2023/12/24 06:51:32;;;;;;;18.05;3.40;;;10.60;94.40;;;;;;4873957;29;20037;-82
2023/12/24 06:53:58;;;;;;;16.85;4.88;;;10.90;94.50;;;;;;4877003;29;20124;-81
2023/12/24 06:56:23;;;;;;;19.98;4.47;;;10.60;94.40;;;;;;4882426;29;20054;-82
2023/12/24 06:58:54;;;;;;;17.23;3.80;;;10.60;94.40;;;;;;4855430;29;20045;-82
2023/12/24 07:01:21;;;;;;;21.33;4.90;;;10.60;94.40;;;;;;4871363;29;20049;-82
2023/12/24 07:03:49;;;;;;;18.80;4.25;;;10.70;94.40;;;;;;4872193;29;20045;-82
2023/12/24 07:06:14;;;;;;;19.35;4.72;;;10.60;94.40;;;;;;4882341;29;20044;-82
2023/12/24 07:08:40;;;;;;;19.17;4.47;;;10.90;94.50;;;;;;4892010;29;20135;-81
2023/12/24 07:11:06;;;;;;;15.20;3.72;;;11.30;94.60;;;;;;4885014;29;20069;-81
2023/12/24 07:13:42;;;;;;;19.80;4.47;;;10.70;94.40;;;;;;4892217;29;20069;-81
2023/12/24 07:16:24;;;;;;;19.83;4.95;;;10.80;94.40;;;;;;4887642;29;20401;-82
2023/12/24 07:18:50;;;;;;;24.83;4.68;;;10.80;94.50;;;;;;4878294;29;20105;-82
2023/12/24 07:21:15;;;;;;;16.95;4.45;;;10.70;94.40;;;;;;4864950;29;20128;-81
2023/12/24 07:23:42;;;;;;;20.23;4.97;;;10.80;94.40;;;;;;4887453;29;20056;-82
2023/12/24 07:26:08;;;;;;;19.60;4.55;;;10.80;94.40;;;;;;4876867;29;20085;-81
2023/12/24 07:28:35;;;;;;;25.92;5.63;;;10.80;94.50;;;;;;4874486;29;20041;-81
2023/12/24 07:31:01;;;;;;;21.70;5.18;;;10.80;94.40;;;;;;4872878;29;20053;-81
2023/12/24 07:33:27;;;;;;;14.30;4.68;;;11.10;94.50;;;;;;4891093;29;20045;-81
2023/12/24 07:35:55;;;;;;;16.05;4.70;;;11.30;94.60;;;;;;4891050;29;20051;-81
2023/12/24 07:38:21;;;;;;;16.60;4.40;;;10.80;94.40;;;;;;4890460;29;20057;-81
2023/12/24 07:40:47;;;;;;;19.42;5.03;;;10.80;94.40;;;;;;4859256;29;20096;-81
2023/12/24 07:43:12;;;;;;;18.60;5.15;;;10.80;94.40;;;;;;4891641;29;20041;-82
2023/12/24 07:45:38;;;;;;;25.77;5.78;;;10.80;94.40;;;;;;4882461;29;20081;-81
2023/12/24 07:48:08;;;;;;;20.02;5.50;;;11.50;94.60;;;;;;4876241;29;20119;-81
2023/12/24 07:50:44;;;;;;;21.45;4.25;;;11.50;94.60;;;;;;4873099;29;20047;-81
2023/12/24 07:53:11;;;;;;;16.60;4.18;;;11.40;94.60;;;;;;4859199;29;20048;-81
2023/12/24 07:55:37;;;;;;;17.27;3.53;;;10.90;94.40;;;;;;4883730;29;20048;-81
2023/12/24 07:58:03;;;;;;;18.15;4.35;;;11.00;94.40;;;;;;4873493;29;20033;-82
2023/12/24 08:00:29;;;;;;;17.13;3.55;;;10.90;94.40;;;;;;4875581;29;20048;-82
2023/12/24 08:02:54;;;;;;;17.83;3.42;;;11.50;94.60;;;;;;4873267;29;20185;-81
2023/12/24 08:05:20;;;;;;;22.30;5.47;;;11.00;94.40;;;;;;4881240;29;20082;-81
2023/12/24 08:07:50;;;;;;;21.40;4.13;;;10.90;94.40;;;;;;4875077;29;20050;-81
2023/12/24 08:10:16;;;;;;;13.55;3.97;;;11.20;94.50;;;;;;4883800;29;20048;-81
2023/12/24 08:12:42;;;;;;;15.98;4.13;;;10.90;94.30;;;;;;4883101;29;20042;-82
2023/12/24 08:15:08;;;;;;;22.23;4.40;;;11.50;94.50;;;;;;4886561;29;20096;-81
2023/12/24 08:17:34;;;;;;;15.85;3.83;;;10.90;94.30;;;;;;4877895;29;20437;-82
2023/12/24 08:19:59;;;;;;;22.80;5.00;;;10.90;94.30;;;;;;4877650;29;20037;-81
2023/12/24 08:22:25;;;;;;;18.38;4.13;;;10.90;94.30;;;;;;4882380;29;20051;-81
2023/12/24 08:24:58;;;;;;;23.95;4.70;;;10.90;94.30;;;;;;4870571;29;20141;-82
2023/12/24 08:27:48;;;;;;;17.65;4.30;;;10.90;94.30;;;;;;4884590;29;20047;-81
2023/12/24 08:30:14;;;;;;;23.60;4.22;;;10.90;94.30;;;;;;4870490;29;20385;-82
2023/12/24 08:32:39;;;;;;;22.23;5.18;;;10.90;94.30;;;;;;4887876;29;20047;-81
2023/12/24 08:35:05;;;;;;;16.05;3.92;;;11.50;94.50;;;;;;4865395;29;20045;-81
2023/12/24 08:37:31;;;;;;;17.20;3.65;;;10.90;94.30;;;;;;4860782;29;20070;-81
2023/12/24 08:40:00;;;;;;;21.58;4.28;;;11.30;94.40;;;;;;4879119;29;20047;-81
2023/12/24 08:42:26;;;;;;;22.10;3.85;;;11.00;94.30;;;;;;4868098;29;20100;-81
2023/12/24 08:44:52;;;;;;;17.05;3.55;;;10.90;94.30;;;;;;4885139;29;20127;-81
2023/12/24 08:47:18;;;;;;;14.60;3.70;;;11.00;94.30;;;;;;4872193;29;20055;-81
2023/12/24 08:49:44;;;;;;;16.83;4.45;;;11.60;94.60;;;;;;4875150;29;20050;-82
2023/12/24 08:52:10;;;;;;;19.67;3.92;;;11.00;94.30;;;;;;4882184;29;20489;-81
2023/12/24 08:54:36;;;;;;;16.40;4.28;;;11.40;94.40;;;;;;4874152;29;20037;-82
2023/12/24 08:57:03;;;;;;;17.42;4.50;;;11.60;94.40;;;;;;4872776;29;20037;-82
2023/12/24 08:59:32;;;;;;;21.08;4.57;;;11.00;94.30;;;;;;4886308;29;20044;-82
2023/12/24 09:01:58;;;;;;;18.38;4.43;;;11.40;94.40;;;;;;4888077;29;20049;-82
2023/12/24 09:04:23;;;;;;;18.33;4.63;;;11.10;94.30;;;;;;4872303;29;20044;-81
2023/12/24 09:06:49;;;;;;;15.98;4.18;;;11.10;94.30;;;;;;4884965;29;20044;-82
2023/12/24 09:09:17;;;;;;;15.98;4.03;;;11.50;94.40;;;;;;4878909;29;20053;-82
2023/12/24 09:11:43;;;;;;;23.27;4.15;;;11.70;94.40;;;;;;4880410;29;20509;-82
2023/12/24 09:14:17;;;;;;;20.00;3.97;;;11.10;94.30;;;;;;4869453;29;20048;-82
2023/12/24 09:16:43;;;;;;;23.17;4.80;;;11.10;94.30;;;;;;4869164;29;20049;-82
2023/12/24 09:19:09;;;;;;;13.63;3.83;;;11.80;94.50;;;;;;4880367;29;20045;-82
2023/12/24 09:21:35;;;;;;;15.02;3.58;;;11.10;94.30;;;;;;4882302;29;20431;-82
2023/12/24 09:24:01;;;;;;;18.33;3.72;;;11.20;94.30;;;;;;4888464;29;20051;-82
2023/12/24 09:26:27;;;;;;;14.93;3.28;;;11.70;94.50;;;;;;4878165;29;20051;-82
2023/12/24 09:28:54;;;;;;;19.40;4.10;;;11.10;94.30;;;;;;4892989;29;20048;-82
2023/12/24 09:31:20;;;;;;;18.13;3.33;;;11.10;94.30;;;;;;4882688;29;20047;-82
2023/12/24 09:33:47;;;;;;;19.30;3.40;;;11.20;94.30;;;;;;4872880;29;20040;-82
2023/12/24 09:36:13;;;;;;;21.23;3.50;;;11.20;94.30;;;;;;4882488;29;20048;-82
2023/12/24 09:38:39;;;;;;;18.40;4.13;;;11.20;94.30;;;;;;4879891;29;20064;-82
2023/12/24 09:41:06;;;;;;;17.23;2.95;;;11.20;94.30;;;;;;4867487;29;20047;-82
2023/12/24 09:43:37;;;;;;;21.27;3.97;;;11.20;94.30;;;;;;4889207;29;20073;-82
2023/12/24 09:46:03;;;;;;;13.82;2.75;;;11.10;94.30;;;;;;4889996;29;20041;-82
2023/12/24 09:48:32;;;;;;;14.98;3.22;;;11.70;94.50;;;;;;4888471;29;20073;-82
2023/12/24 09:50:58;;;;;;;13.98;3.00;;;11.60;94.40;;;;;;4870206;29;20092;-82
2023/12/24 09:53:24;;;;;;;18.70;4.00;;;11.50;94.40;;;;;;4889085;29;20064;-82
2023/12/24 09:55:49;;;;;;;15.00;3.30;;;11.30;94.30;;;;;;4884552;29;20049;-83
2023/12/24 09:58:17;;;;;;;15.18;3.13;;;11.30;94.30;;;;;;4882606;29;20041;-82
2023/12/24 10:00:43;;;;;;;14.45;3.58;;;11.60;94.30;;;;;;4885873;29;20057;-82
2023/12/24 10:03:08;;;;;;;12.52;3.63;;;11.80;94.40;;;;;;4880318;29;20044;-83
2023/12/24 10:05:54;;;;;;;13.20;3.15;;;11.50;94.30;;;;;;4885320;29;20492;-83
2023/12/24 10:08:22;;;;;;;13.43;2.83;;;11.40;94.20;;;;;;4886968;29;20072;-82
2023/12/24 10:10:51;;;;;;;16.02;3.50;;;11.40;94.20;;;;;;4890849;29;20456;-82
2023/12/24 10:13:20;;;;;;;18.73;4.07;;;11.50;94.30;;;;;;4873095;29;20041;-82
2023/12/24 10:16:00;;;;;;;18.88;3.28;;;11.40;94.20;;;;;;4857874;29;20056;-81
2023/12/24 10:18:35;;;;;;;18.88;3.15;;;11.70;94.30;;;;;;4889640;29;20101;-82
2023/12/24 10:21:10;;;;;;;18.13;3.50;;;12.00;94.40;;;;;;4873591;29;20051;-81
2023/12/24 10:23:36;;;;;;;15.40;3.55;;;11.50;94.30;;;;;;4901842;29;20043;-81
2023/12/24 10:26:03;;;;;;;16.95;3.08;;;11.70;94.30;;;;;;4889065;29;20041;-82
2023/12/24 10:28:56;;;;;;;21.35;4.40;;;11.50;94.20;;;;;;4890881;29;20041;-81
2023/12/24 10:31:33;;;;;;;17.42;2.63;;;11.60;94.20;;;;;;4886977;29;20040;-81
2023/12/24 10:34:08;;;;;;;15.85;3.35;;;11.50;94.20;;;;;;4868834;29;20045;-81
2023/12/24 10:36:41;;;;;;;15.90;3.10;;;11.70;94.20;;;;;;4888716;29;20068;-81
2023/12/24 10:39:18;;;;;;;12.32;3.15;;;11.60;94.20;;;;;;4888126;29;20072;-82
2023/12/24 10:41:44;;;;;;;15.07;3.33;;;11.60;94.20;;;;;;4859630;29;20131;-81
2023/12/24 10:44:09;;;;;;;13.88;3.25;;;11.90;94.20;;;;;;4876954;29;20071;-81
2023/12/24 10:46:47;;;;;;;16.23;3.28;;;11.60;94.10;;;;;;4910734;29;20052;-82
2023/12/24 10:49:13;;;;;;;22.42;3.72;;;12.30;94.30;;;;;;4892622;29;20049;-81
2023/12/24 10:51:43;;;;;;;13.95;3.30;;;11.70;94.10;;;;;;4892387;29;20040;-81
2023/12/24 10:54:15;;;;;;;16.10;2.70;;;11.70;94.10;;;;;;4893327;29;20037;-81
2023/12/24 10:57:01;;;;;;;17.05;3.50;;;12.30;94.20;;;;;;4892812;29;20036;-82
2023/12/24 11:00:06;;;;;;;19.02;2.85;;;12.20;94.20;;;;;;4874170;29;20088;-81
2023/12/24 11:02:34;;;;;;;12.15;3.25;;;11.70;94.00;;;;;;4890177;29;20069;-82
2023/12/24 11:05:00;;;;;;;19.77;3.33;;;11.70;94.20;;;;;;4893776;29;20056;-81
2023/12/24 11:07:41;;;;;;;16.20;3.00;;;11.70;94.00;;;;;;4891913;29;20096;-81
2023/12/24 11:10:30;;;;;;;15.48;2.83;;;12.00;94.10;;;;;;4878864;29;20052;-81
2023/12/24 11:13:01;;;;;;;19.63;3.53;;;11.80;94.00;;;;;;4873984;29;20518;-81
2023/12/24 11:15:41;;;;;;;12.65;2.80;;;11.80;94.00;;;;;;4858527;29;20061;-81
2023/12/24 11:18:11;;;;;;;18.98;3.10;;;12.40;94.10;;;;;;4878293;29;20127;-81
2023/12/24 11:20:41;;;;;;;13.77;3.53;;;12.20;94.00;;;;;;4888890;29;20052;-81
2023/12/24 11:23:10;;;;;;;12.52;2.65;;;11.90;93.90;;;;;;4867532;29;20037;-82
2023/12/24 11:25:47;;;;;;;10.88;2.53;;;11.80;93.90;;;;;;4890806;29;20040;-82
2023/12/24 11:28:40;;;;;;;12.35;2.38;;;11.70;93.60;;;;;;4877993;29;20052;-81
2023/12/24 11:31:08;;;;;;;14.43;3.40;;;11.60;93.40;;;;;;4893148;29;20052;-81
2023/12/24 11:34:01;;;;;;;18.85;3.67;;;11.60;93.50;;;;;;4881213;29;20045;-81
2023/12/24 11:36:27;;;;;;;13.63;2.90;;;11.60;93.50;;;;;;4894337;29;20044;-81
2023/12/24 11:38:58;;;;;;;12.02;2.50;;;11.50;93.50;;;;;;4904626;29;20055;-81
2023/12/24 11:41:32;;;;;;;16.45;3.10;;;11.50;93.50;;;;;;4895219;29;20072;-81
2023/12/24 11:44:19;;;;;;;13.77;3.45;;;11.40;93.40;;;;;;4905665;29;20044;-81
2023/12/24 11:47:28;;;;;;;12.60;2.33;;;11.40;93.50;;;;;;4893587;29;20127;-81
2023/12/24 11:50:05;;;;;;;18.05;3.28;;;11.40;93.50;;;;;;4892020;29;20039;-81
2023/12/24 11:52:59;;;;;;;11.65;3.08;;;11.40;93.60;;;;;;4878990;29;20099;-81
2023/12/24 11:56:17;;;;;;;17.63;3.97;;;11.40;93.60;;;;;;4840104;29;20045;-81
2023/12/24 11:58:48;;;;;;;11.85;2.70;;;11.30;93.60;;;;;;4870004;29;20128;-81
2023/12/24 12:01:34;;;;;;;17.50;5.15;;;11.30;93.60;;;;;;4854996;29;20066;-81
2023/12/24 12:04:15;;;;;;;20.00;6.97;;;11.30;93.60;;;;;;4870322;29;20106;-82
2023/12/24 12:06:40;;;;;;;14.65;5.10;;;11.30;93.70;;;;;;4842678;29;20050;-81
2023/12/24 12:09:14;;;;;;;20.63;5.28;;;11.80;93.80;;;;;;4854523;29;20041;-81
2023/12/24 12:11:43;;;;;;;15.60;3.95;;;11.20;93.60;;;;;;4823488;29;20109;-81
2023/12/24 12:14:31;;;;;;;19.00;3.65;;;11.80;93.80;;;;;;4852229;29;20541;-81
2023/12/24 12:16:58;;;;;;;13.60;3.03;;;11.20;93.70;;;;;;4849943;29;20061;-82
2023/12/24 12:19:26;;;;;;;18.38;3.53;;;11.80;93.90;;;;;;4838606;29;20045;-81
2023/12/24 12:21:58;;;;;;;15.45;4.07;;;11.20;93.70;;;;;;4821663;29;20050;-81
2023/12/24 12:24:29;;;;;;;15.10;3.42;;;11.20;93.80;;;;;;4838241;29;20042;-81
2023/12/24 12:26:55;;;;;;;12.23;3.45;;;11.20;93.80;;;;;;4852309;29;20060;-81
2023/12/24 12:29:22;;;;;;;16.02;3.55;;;11.20;94.00;;;;;;4885777;29;20051;-81
2023/12/24 12:31:47;;;;;;;15.82;3.38;;;11.20;94.00;;;;;;4877094;29;20081;-81
2023/12/24 12:34:16;;;;;;;14.55;3.33;;;11.30;94.10;;;;;;4871293;29;20041;-82
2023/12/24 12:36:44;;;;;;;21.10;4.18;;;11.30;94.10;;;;;;4891904;29;20070;-82
2023/12/24 12:39:14;;;;;;;17.17;3.67;;;11.60;94.30;;;;;;4875175;29;20048;-82
2023/12/24 12:41:44;;;;;;;19.02;3.72;;;11.40;94.30;;;;;;4877443;29;20100;-81
2023/12/24 12:44:11;;;;;;;17.25;3.53;;;11.40;94.30;;;;;;4887484;29;20048;-81
2023/12/24 12:46:37;;;;;;;22.80;5.55;;;11.50;94.40;;;;;;4888753;29;20045;-81
2023/12/24 12:49:11;;;;;;;19.98;3.88;;;11.70;94.40;;;;;;4887935;29;20053;-81
2023/12/24 12:51:42;;;;;;;;;;;11.50;94.40;;;;;;4889345;29;20044;-81
2023/12/24 12:54:14;;;;;;;16.10;3.45;;;11.90;94.40;;;;;;4891238;29;19983;-82
2023/12/24 12:56:52;;;;;;;19.58;4.60;;;11.60;94.40;;;;;;4890848;29;20044;-82